Time;durP1;ratioP1;P1;durP2;ratioP2;P2;SDS_P1;SDS_P2;PMS_P1;PMS_P2;Temp;Humidity;BMP_temperature;BMP_pressure;BME280_temperature;BME280_humidity;BME280_pressure;Samples;Min_cycle;Max_cycle;Signal;HPM_P1;HPM_P2
2022/04/06 00:00:43;;;;;;;;;;;21.00;38.70;;;;;;5167497;27;20013;-55
2022/04/06 00:03:09;;;;;;;;;;;21.20;38.40;;;;;;5164113;27;19923;-59
2022/04/06 00:05:35;;;;;;;;;;;20.90;38.90;;;;;;5169539;27;19971;-60
2022/04/06 00:08:01;;;;;;;;;;;21.20;38.30;;;;;;5163955;27;19938;-59
2022/04/06 00:10:28;;;;;;;;;;;20.90;39.00;;;;;;5160839;27;19927;-49
2022/04/06 00:12:54;;;;;;;;;;;21.20;38.40;;;;;;5168304;27;20298;-60
2022/04/06 00:15:20;;;;;;;;;;;20.90;39.00;;;;;;5163641;27;19923;-51
2022/04/06 00:17:46;;;;;;;;;;;21.10;38.60;;;;;;5163892;27;20069;-58
2022/04/06 00:20:12;;;;;;;;;;;21.10;38.60;;;;;;5169222;27;19971;-55
2022/04/06 00:22:38;;;;;;;;;;;21.10;38.50;;;;;;5163741;27;20366;-57
2022/04/06 00:25:04;;;;;;;;;;;21.20;38.50;;;;;;5169145;27;19927;-56
2022/04/06 00:27:30;;;;;;;;;;;21.10;38.60;;;;;;5162368;27;20298;-58
2022/04/06 00:29:55;;;;;;;;;;;21.20;38.50;;;;;;5160502;27;19926;-57
2022/04/06 00:32:21;;;;;;;;;;;21.10;38.60;;;;;;5169190;27;19958;-59
2022/04/06 00:37:31;;;;;;;;;;;21.20;38.50;;;;;;5163758;27;19929;-59
2022/04/06 00:39:56;;;;;;;;;;;21.10;38.70;;;;;;5169285;27;19927;-54
2022/04/06 00:42:22;;;;;;;;;;;21.00;38.80;;;;;;5163650;27;19922;-52
2022/04/06 00:44:48;;;;;;;;;;;21.10;38.80;;;;;;5163403;27;19926;-51
2022/04/06 00:47:14;;;;;;;;;;;20.90;38.80;;;;;;5165573;27;19923;-54
2022/04/06 00:49:39;;;;;;;;;;;21.30;38.30;;;;;;5161908;27;20378;-58
2022/04/06 00:52:06;;;;;;;;;;;21.00;38.60;;;;;;5168878;27;20304;-50
2022/04/06 00:54:31;;;;;;;;;;;21.20;38.30;;;;;;5163198;27;19923;-57
2022/04/06 00:56:57;;;;;;;;;;;21.10;38.70;;;;;;5163174;27;19927;-56
2022/04/06 00:59:23;;;;;;;;;;;21.10;38.40;;;;;;5168505;27;19934;-58
2022/04/06 01:01:49;;;;;;;;;;;21.00;38.80;;;;;;5162848;27;19965;-54
2022/04/06 01:04:15;;;;;;;;;;;21.10;38.50;;;;;;5162022;27;20053;-56
2022/04/06 01:06:41;;;;;;;;;;;21.10;38.60;;;;;;5165119;27;19930;-59
2022/04/06 01:09:07;;;;;;;;;;;20.90;38.90;;;;;;5162775;27;19930;-59
2022/04/06 01:11:33;;;;;;;;;;;21.20;38.50;;;;;;5168483;27;19967;-56
2022/04/06 01:13:59;;;;;;;;;;;21.00;38.90;;;;;;5144438;27;19953;-56
2022/04/06 01:16:24;;;;;;;;;;;21.30;38.40;;;;;;5162820;27;19926;-56
2022/04/06 01:18:50;;;;;;;;;;;21.10;38.80;;;;;;5168448;27;20184;-54
2022/04/06 01:21:16;;;;;;;;;;;21.10;38.50;;;;;;5162825;27;19927;-59
2022/04/06 01:23:42;;;;;;;;;;;21.00;38.90;;;;;;5142014;27;20295;-55
2022/04/06 01:26:08;;;;;;;;;;;21.20;38.40;;;;;;5165956;27;19930;-58
2022/04/06 01:28:34;;;;;;;;;;;21.10;38.60;;;;;;5163158;27;19933;-57
2022/04/06 01:31:00;;;;;;;;;;;21.10;38.50;;;;;;5168574;27;20385;-59
2022/04/06 01:33:26;;;;;;;;;;;21.10;38.60;;;;;;5162866;27;20360;-58
2022/04/06 01:35:52;;;;;;;;;;;21.10;38.50;;;;;;5162731;27;19927;-59
2022/04/06 01:38:17;;;;;;;;;;;21.10;38.70;;;;;;5168133;27;19922;-49
2022/04/06 01:40:43;;;;;;;;;;;21.20;38.50;;;;;;5162011;27;19923;-54
2022/04/06 01:43:09;;;;;;;;;;;21.20;38.80;;;;;;5159781;27;20154;-51
2022/04/06 01:45:35;;;;;;;;;;;21.00;38.90;;;;;;5167576;27;20013;-54
2022/04/06 01:48:01;;;;;;;;;;;21.20;38.80;;;;;;5162933;27;19967;-57
2022/04/06 01:53:11;;;;;;;;;;;21.30;38.40;;;;;;5168216;27;19935;-59
2022/04/06 01:55:36;;;;;;;;;;;20.90;39.30;;;;;;5162431;27;19978;-57
2022/04/06 01:58:02;;;;;;;;;;;21.30;38.70;;;;;;5167968;27;19944;-59
2022/04/06 02:00:28;;;;;;;;;;;20.90;39.40;;;;;;5160714;27;20354;-50
2022/04/06 02:02:54;;;;;;;;;;;21.20;38.90;;;;;;5160070;27;20297;-54
2022/04/06 02:05:20;;;;;;;;;;;21.10;38.70;;;;;;5168056;27;19923;-56
2022/04/06 02:07:49;;;;;;;;;;;21.20;38.60;;;;;;5162726;27;20065;-51
2022/04/06 02:10:15;;;;;;;;;;;20.90;38.90;;;;;;5162466;27;19922;-56
2022/04/06 02:12:41;;;;;;;;;;;21.30;38.30;;;;;;5168017;27;20021;-58
2022/04/06 02:15:08;;;;;;;;;;;21.10;38.60;;;;;;5162076;27;19975;-56
2022/04/06 02:17:34;;;;;;;;;;;21.30;38.20;;;;;;5165542;27;19953;-56
2022/04/06 02:20:00;;;;;;;;;;;21.00;38.80;;;;;;5160888;27;19989;-55
2022/04/06 02:22:26;;;;;;;;;;;21.20;38.30;;;;;;5161097;27;19923;-58
2022/04/06 02:24:51;;;;;;;;;;;21.00;38.90;;;;;;5170571;27;20432;-54
2022/04/06 02:27:17;;;;;;;;;;;21.30;38.50;;;;;;5166139;27;19950;-58
2022/04/06 02:29:43;;;;;;;;;;;21.00;38.80;;;;;;5166414;27;19923;-53
2022/04/06 02:32:09;;;;;;;;;;;21.20;38.40;;;;;;5171681;27;20430;-59
2022/04/06 02:34:35;;;;;;;;;;;21.00;38.80;;;;;;5165810;27;20289;-58
2022/04/06 02:37:04;;;;;;;;;;;21.20;38.50;;;;;;5165933;27;19926;-59
2022/04/06 02:39:30;;;;;;;;;;;21.10;38.90;;;;;;5167979;27;19931;-56
2022/04/06 02:41:55;;;;;;;;;;;21.20;38.70;;;;;;5165930;27;19927;-59
2022/04/06 02:44:21;;;;;;;;;;;21.00;39.20;;;;;;5171569;27;19926;-53
2022/04/06 02:46:47;;;;;;;;;;;21.20;38.70;;;;;;5165673;27;19923;-59
2022/04/06 02:49:14;;;;;;;;;;;21.00;39.00;;;;;;5165767;27;19971;-57
2022/04/06 02:51:39;;;;;;;;;;;21.20;38.80;;;;;;5170879;27;19933;-50
2022/04/06 02:54:05;;;;;;;;;;;21.20;39.00;;;;;;5165143;27;19927;-58
2022/04/06 02:56:31;;;;;;;;;;;20.90;39.40;;;;;;5162749;27;19931;-49
2022/04/06 02:58:57;;;;;;;;;;;21.20;39.00;;;;;;5150838;27;19929;-59
2022/04/06 03:01:23;;;;;;;;;;;21.00;39.50;;;;;;5165453;27;20018;-54
2022/04/06 03:03:48;;;;;;;;;;;21.20;38.90;;;;;;5170822;27;19926;-58
2022/04/06 03:06:15;;;;;;;;;;;21.10;39.00;;;;;;5146773;27;19929;-57
2022/04/06 03:08:40;;;;;;;;;;;21.20;38.90;;;;;;5165113;27;19991;-58
2022/04/06 03:11:06;;;;;;;;;;;21.00;39.30;;;;;;5170466;27;19926;-57
2022/04/06 03:13:32;;;;;;;;;;;21.30;38.80;;;;;;5164375;27;20386;-57
2022/04/06 03:15:58;;;;;;;;;;;21.10;39.00;;;;;;5161874;27;19922;-56
2022/04/06 03:18:24;;;;;;;;;;;21.20;38.60;;;;;;5151662;27;20022;-59
2022/04/06 03:20:50;;;;;;;;;;;20.90;39.40;;;;;;5165125;27;19929;-53
2022/04/06 03:23:15;;;;;;;;;;;21.20;38.70;;;;;;5170571;27;20013;-59
2022/04/06 03:25:41;;;;;;;;;;;20.90;39.10;;;;;;5165012;27;19923;-51
2022/04/06 03:28:07;;;;;;;;;;;21.20;38.60;;;;;;5164930;27;20378;-56
2022/04/06 03:30:33;;;;;;;;;;;21.00;38.90;;;;;;5169936;27;19994;-56
2022/04/06 03:32:59;;;;;;;;;;;21.30;38.40;;;;;;5162913;27;19940;-58
2022/04/06 03:35:25;;;;;;;;;;;21.00;38.70;;;;;;5160903;27;20101;-57
2022/04/06 03:37:51;;;;;;;;;;;21.20;38.50;;;;;;5170367;27;20374;-59
2022/04/06 03:40:16;;;;;;;;;;;21.00;38.80;;;;;;5164771;27;20313;-57
2022/04/06 03:42:42;;;;;;;;;;;21.30;38.40;;;;;;5169321;27;20410;-58
2022/04/06 03:45:08;;;;;;;;;;;21.10;39.10;;;;;;5165974;27;20017;-56
2022/04/06 03:47:34;;;;;;;;;;;21.20;38.80;;;;;;5164381;27;19938;-59
2022/04/06 03:50:00;;;;;;;;;;;21.00;39.10;;;;;;5169573;27;19930;-53
2022/04/06 03:52:27;;;;;;;;;;;21.10;38.90;;;;;;5161245;27;19923;-59
2022/04/06 03:54:53;;;;;;;;;;;21.20;38.90;;;;;;5163469;27;20431;-52
2022/04/06 03:57:19;;;;;;;;;;;21.00;39.20;;;;;;5170065;27;20348;-52
2022/04/06 03:59:45;;;;;;;;;;;21.20;38.90;;;;;;5145685;27;19929;-59
2022/04/06 04:02:11;;;;;;;;;;;20.90;39.50;;;;;;5165517;27;19926;-55
2022/04/06 04:04:36;;;;;;;;;;;21.20;38.90;;;;;;5168708;27;19971;-58
2022/04/06 04:07:02;;;;;;;;;;;21.00;39.30;;;;;;5163651;27;20017;-53
2022/04/06 04:09:29;;;;;;;;;;;21.10;39.00;;;;;;5166185;27;19926;-60
2022/04/06 04:11:56;;;;;;;;;;;21.00;39.10;;;;;;5160874;27;19922;-57
2022/04/06 04:14:22;;;;;;;;;;;21.20;39.00;;;;;;5163783;27;20013;-58
2022/04/06 04:16:48;;;;;;;;;;;21.10;39.10;;;;;;5169535;27;20381;-55
2022/04/06 04:19:15;;;;;;;;;;;21.10;39.10;;;;;;5163874;27;19923;-57
2022/04/06 04:21:42;;;;;;;;;;;21.20;38.90;;;;;;5163689;27;19926;-56
2022/04/06 04:24:10;;;;;;;;;;;20.90;39.20;;;;;;5169116;27;19929;-49
2022/04/06 04:26:36;;;;;;;;;;;21.20;38.80;;;;;;5163346;27;19978;-58
2022/04/06 04:29:03;;;;;;;;;;;21.00;39.20;;;;;;5166447;27;19927;-48
2022/04/06 04:31:28;;;;;;;;;;;21.20;38.80;;;;;;5161803;27;19977;-55
2022/04/06 04:33:55;;;;;;;;;;;21.00;39.20;;;;;;5163853;27;19923;-55
2022/04/06 04:36:21;;;;;;;;;;;21.30;38.70;;;;;;5169527;27;19982;-57
2022/04/06 04:38:47;;;;;;;;;;;21.10;39.10;;;;;;5163843;27;19923;-57
2022/04/06 04:41:13;;;;;;;;;;;21.20;38.90;;;;;;5163532;27;20212;-59
2022/04/06 04:43:39;;;;;;;;;;;21.00;39.20;;;;;;5169069;27;19930;-54
2022/04/06 04:46:04;;;;;;;;;;;21.10;39.20;;;;;;5162172;27;19923;-58
2022/04/06 04:48:30;;;;;;;;;;;21.10;39.20;;;;;;5164419;27;19942;-53
2022/04/06 04:50:56;;;;;;;;;;;21.00;39.10;;;;;;5164271;27;19933;-51
2022/04/06 04:53:22;;;;;;;;;;;21.20;38.90;;;;;;5163528;27;19927;-58
2022/04/06 04:55:48;;;;;;;;;;;21.00;39.40;;;;;;5168768;27;20336;-54
2022/04/06 04:58:14;;;;;;;;;;;21.20;38.90;;;;;;5163629;27;20400;-56
2022/04/06 05:00:39;;;;;;;;;;;21.10;39.10;;;;;;5163241;27;19934;-55
2022/04/06 05:03:05;;;;;;;;;;;21.10;38.80;;;;;;5168424;27;20356;-58
2022/04/06 05:05:31;;;;;;;;;;;21.20;39.00;;;;;;5161317;27;19945;-57
2022/04/06 05:07:58;;;;;;;;;;;21.00;39.30;;;;;;5162488;27;19927;-54
2022/04/06 05:10:24;;;;;;;;;;;21.20;38.90;;;;;;5167473;27;19923;-57
2022/04/06 05:12:51;;;;;;;;;;;21.00;39.20;;;;;;5163294;27;19927;-56
2022/04/06 05:15:16;;;;;;;;;;;21.20;38.90;;;;;;5168444;27;20017;-48
2022/04/06 05:17:42;;;;;;;;;;;21.10;38.90;;;;;;5163206;27;20409;-53
2022/04/06 05:20:08;;;;;;;;;;;21.20;38.70;;;;;;5162803;27;19930;-58
2022/04/06 05:22:34;;;;;;;;;;;21.00;39.00;;;;;;5149287;27;19934;-56
2022/04/06 05:25:04;;;;;;;;;;;21.20;38.70;;;;;;5159769;27;20512;-59
2022/04/06 05:27:30;;;;;;;;;;;21.00;39.00;;;;;;5161522;27;19923;-58
2022/04/06 05:29:56;;;;;;;;;;;21.10;38.90;;;;;;5149621;27;19929;-59
2022/04/06 05:32:22;;;;;;;;;;;21.00;39.10;;;;;;5163023;27;20017;-50
2022/04/06 05:34:48;;;;;;;;;;;21.00;39.20;;;;;;5168318;27;19923;-56
2022/04/06 05:37:14;;;;;;;;;;;21.20;39.10;;;;;;5162797;27;20017;-56
2022/04/06 05:39:39;;;;;;;;;;;21.10;39.40;;;;;;5162523;27;20377;-56
2022/04/06 05:42:05;;;;;;;;;;;21.20;39.20;;;;;;5166731;27;19929;-57
2022/04/06 05:44:31;;;;;;;;;;;21.10;39.50;;;;;;5159741;27;20413;-52
2022/04/06 05:46:57;;;;;;;;;;;21.10;39.40;;;;;;5162513;27;20310;-54
2022/04/06 05:49:23;;;;;;;;;;;21.20;39.40;;;;;;5168338;27;20339;-58
2022/04/06 05:51:49;;;;;;;;;;;21.10;39.50;;;;;;5162713;27;19922;-51
2022/04/06 05:54:14;;;;;;;;;;;21.20;39.40;;;;;;5168354;27;20377;-57
2022/04/06 05:56:40;;;;;;;;;;;21.00;39.70;;;;;;5162536;27;19968;-48
2022/04/06 05:59:06;;;;;;;;;;;21.20;39.40;;;;;;5163768;27;20343;-58
2022/04/06 06:01:32;;;;;;;;;;;21.10;39.60;;;;;;5169556;27;19976;-58
2022/04/06 06:03:58;;;;;;;;;;;21.30;39.20;;;;;;5164388;27;19927;-58
2022/04/06 06:06:23;;;;;;;;;;;21.10;39.50;;;;;;5166502;27;19923;-48
2022/04/06 06:08:49;;;;;;;;;;;21.10;39.50;;;;;;5171979;27;19931;-56
2022/04/06 06:11:15;;;;;;;;;;;21.20;39.30;;;;;;5166612;27;19956;-59
2022/04/06 06:13:41;;;;;;;;;;;21.00;39.70;;;;;;5170508;27;19922;-55
2022/04/06 06:16:06;;;;;;;;;;;21.20;39.40;;;;;;5167955;27;20426;-60
2022/04/06 06:18:32;;;;;;;;;;;21.00;39.70;;;;;;5146730;27;19966;-58
2022/04/06 06:21:00;;;;;;;;;;;21.20;39.20;;;;;;5168133;27;20030;-59
2022/04/06 06:23:27;;;;;;;;;;;21.10;39.50;;;;;;5165443;27;19923;-57
2022/04/06 06:25:53;;;;;;;;;;;21.10;39.20;;;;;;5166133;27;19927;-58
2022/04/06 06:28:18;;;;;;;;;;;21.00;39.70;;;;;;5171693;27;19926;-56
2022/04/06 06:30:44;;;;;;;;;;;21.30;39.00;;;;;;5166087;27;19922;-59
2022/04/06 06:33:10;;;;;;;;;;;21.00;39.70;;;;;;5166734;27;19923;-55
2022/04/06 06:35:36;;;;;;;;;;;21.10;39.40;;;;;;5170960;27;19926;-51
2022/04/06 06:38:02;;;;;;;;;;;21.10;39.50;;;;;;5164088;27;20447;-57
2022/04/06 06:40:28;;;;;;;;;;;21.30;39.00;;;;;;5168208;27;19946;-53
2022/04/06 06:42:54;;;;;;;;;;;21.00;39.20;;;;;;5165629;27;20281;-56
2022/04/06 06:45:19;;;;;;;;;;;21.30;38.80;;;;;;5165850;27;19927;-58
2022/04/06 06:47:45;;;;;;;;;;;20.90;39.60;;;;;;5152711;27;19922;-58
2022/04/06 06:50:12;;;;;;;;;;;21.20;38.90;;;;;;5165595;27;19926;-58
2022/04/06 06:52:38;;;;;;;;;;;21.00;39.50;;;;;;5165578;27;19922;-58
2022/04/06 06:55:04;;;;;;;;;;;21.30;39.00;;;;;;5170802;27;19923;-59
2022/04/06 06:57:30;;;;;;;;;;;21.00;39.70;;;;;;5162530;27;19923;-55
2022/04/06 06:59:55;;;;;;;;;;;21.20;39.30;;;;;;5169465;27;19999;-51
2022/04/06 07:02:21;;;;;;;;;;;21.10;39.50;;;;;;5165422;27;19930;-55
2022/04/06 07:04:47;;;;;;;;;;;21.10;39.50;;;;;;5165479;27;20295;-52
2022/04/06 07:07:13;;;;;;;;;;;21.30;39.10;;;;;;5171131;27;19927;-56
2022/04/06 07:09:39;;;;;;;;;;;21.00;39.20;;;;;;5165030;27;19983;-51
2022/04/06 07:12:05;;;;;;;;;;;21.20;39.10;;;;;;5146648;27;20272;-52
2022/04/06 07:14:32;;;;;;;;;;;21.00;39.30;;;;;;5169586;27;19922;-55
2022/04/06 07:16:58;;;;;;;;;;;21.20;39.00;;;;;;5161812;27;19927;-55
2022/04/06 07:19:24;;;;;;;;;;;21.10;39.00;;;;;;5170265;27;20022;-54
2022/04/06 07:21:50;;;;;;;;;;;21.10;39.10;;;;;;5165074;27;19937;-53
2022/04/06 07:24:16;;;;;;;;;;;21.20;39.20;;;;;;5164895;27;19922;-59
2022/04/06 07:26:42;;;;;;;;;;;21.10;39.60;;;;;;5170508;27;19930;-56
2022/04/06 07:29:11;;;;;;;;;;;21.20;39.40;;;;;;5164778;27;20285;-58
2022/04/06 07:31:38;;;;;;;;;;;21.00;39.70;;;;;;5164609;27;20022;-55
2022/04/06 07:34:04;;;;;;;;;;;21.30;39.20;;;;;;5167592;27;19922;-54
2022/04/06 07:36:30;;;;;;;;;;;21.20;39.40;;;;;;5162332;27;20286;-49
2022/04/06 07:38:55;;;;;;;;;;;21.10;39.00;;;;;;5166686;27;19923;-54
2022/04/06 07:41:24;;;;;;;;;;;21.20;38.90;;;;;;5168745;27;19926;-59
2022/04/06 07:43:50;;;;;;;;;;;21.10;39.00;;;;;;5164883;27;19944;-57
2022/04/06 07:46:16;;;;;;;;;;;21.20;38.70;;;;;;5170058;27;19923;-47
2022/04/06 07:48:42;;;;;;;;;;;21.10;39.10;;;;;;5164141;27;19946;-54
2022/04/06 07:51:08;;;;;;;;;;;21.20;38.80;;;;;;5163730;27;19934;-54
2022/04/06 07:53:34;;;;;;;;;;;21.10;38.70;;;;;;5166520;27;20409;-56
2022/04/06 07:56:00;;;;;;;;;;;21.30;38.60;;;;;;5163512;27;19937;-57
2022/04/06 07:58:26;;;;;;;;;;;21.20;38.70;;;;;;5164372;27;19922;-51
2022/04/06 08:00:52;;;;;;;;;;;21.20;38.70;;;;;;5169957;27;20366;-53
2022/04/06 08:03:18;;;;;;;;;;;21.20;38.50;;;;;;5164158;27;20328;-55
2022/04/06 08:05:43;;;;;;;;;;;21.20;38.70;;;;;;5169617;27;19931;-56
2022/04/06 08:08:09;;;;;;;;;;;21.20;38.60;;;;;;5163930;27;19926;-52
2022/04/06 08:10:35;;;;;;;;;;;21.20;38.80;;;;;;5161948;27;19941;-57
2022/04/06 08:13:01;;;;;;;;;;;21.10;38.70;;;;;;5166463;27;20293;-49
2022/04/06 08:15:27;;;;;;;;;;;21.20;38.50;;;;;;5164071;27;19930;-56
2022/04/06 08:17:53;;;;;;;;;;;21.20;38.30;;;;;;5164110;27;20277;-50
2022/04/06 08:20:19;;;;;;;;;;;21.10;38.30;;;;;;5169699;27;19923;-54
2022/04/06 08:22:45;;;;;;;;;;;21.30;38.00;;;;;;5163169;27;20275;-58
2022/04/06 08:25:12;;;;;;;;;;;21.20;38.00;;;;;;5169092;27;19970;-47
2022/04/06 08:27:40;;;;;;;;;;;21.00;38.40;;;;;;5161181;27;20288;-56
2022/04/06 08:30:06;;;;;;;;;;;21.30;38.10;;;;;;5160486;27;20373;-57
2022/04/06 08:32:32;;;;;;;;;;;21.10;38.40;;;;;;5167756;27;19923;-55
2022/04/06 08:34:58;;;;;;;;;;;21.20;38.10;;;;;;5163834;27;20370;-59
2022/04/06 08:37:24;;;;;;;;;;;21.10;38.10;;;;;;5163635;27;20221;-57
2022/04/06 08:39:50;;;;;;;;;;;21.20;38.00;;;;;;5169160;27;19922;-55
2022/04/06 08:42:16;;;;;;;;;;;21.30;37.80;;;;;;5163458;27;19954;-55
2022/04/06 08:44:42;;;;;;;;;;;21.10;37.60;;;;;;5165912;27;20445;-58
2022/04/06 08:47:08;;;;;;;;;;;21.20;37.30;;;;;;5164990;27;19926;-55
2022/04/06 08:49:33;;;;;;;;;;;21.10;37.20;;;;;;5160270;27;20017;-58
2022/04/06 08:52:00;;;;;;;;;;;21.30;36.80;;;;;;5168947;27;19922;-56
2022/04/06 08:54:26;;;;;;;;;;;21.30;36.60;;;;;;5163597;27;20073;-57
2022/04/06 08:56:52;;;;;;;;;;;21.10;36.80;;;;;;5163227;27;19933;-54
2022/04/06 08:59:18;;;;;;;;;;;21.30;36.70;;;;;;5168700;27;19922;-57
2022/04/06 09:01:44;;;;;;;;;;;21.30;36.70;;;;;;5163313;27;20365;-55
2022/04/06 09:04:10;;;;;;;;;;;21.10;36.80;;;;;;5163006;27;20013;-58
2022/04/06 09:06:39;;;;;;;;;;;21.30;36.20;;;;;;5165813;27;20427;-57
2022/04/06 09:09:05;;;;;;;;;;;21.00;36.90;;;;;;5161100;27;19929;-52
2022/04/06 09:11:32;;;;;;;;;;;21.30;36.60;;;;;;5168604;27;19970;-57
2022/04/06 09:13:59;;;;;;;;;;;21.30;36.20;;;;;;5144250;27;20029;-54
2022/04/06 09:16:26;;;;;;;;;;;21.20;36.10;;;;;;5162979;27;19923;-58
2022/04/06 09:18:52;;;;;;;;;;;21.20;36.00;;;;;;5149872;27;20384;-57
2022/04/06 09:21:18;;;;;;;;;;;21.30;35.90;;;;;;5162565;27;19922;-56
2022/04/06 09:23:45;;;;;;;;;;;21.20;36.10;;;;;;5161705;27;20180;-57
2022/04/06 09:26:11;;;;;;;;;;;21.20;36.00;;;;;;5164721;27;19923;-56
2022/04/06 09:28:41;;;;;;;;;;;21.00;36.50;;;;;;5162606;27;20370;-57
2022/04/06 09:31:08;;;;;;;;;;;21.30;36.10;;;;;;5166623;27;19927;-53
2022/04/06 09:33:39;;;;;;;;;;;21.30;35.90;;;;;;5167957;27;19933;-55
2022/04/06 09:36:20;;;;;;;;;;;21.10;36.20;;;;;;5167230;27;19926;-55
2022/04/06 09:38:52;;;;;;;;;;;21.20;35.70;;;;;;5172544;27;19980;-55
2022/04/06 09:41:19;;;;;;;;;;;21.20;35.50;;;;;;5169145;27;19925;-56
2022/04/06 09:43:48;;;;;;;;;;;21.20;35.10;;;;;;5163985;27;20017;-55
2022/04/06 09:49:01;;;;;;;;;;;21.20;35.00;;;;;;5169380;27;19922;-53
2022/04/06 09:51:27;;;;;;;;;;;21.10;35.10;;;;;;5166859;27;20415;-57
2022/04/06 09:53:53;;;;;;;;;;;21.20;35.00;;;;;;5172361;27;19927;-55
2022/04/06 09:56:19;;;;;;;;;;;21.20;34.80;;;;;;5166664;27;19977;-55
2022/04/06 09:58:45;;;;;;;;;;;21.30;34.70;;;;;;5166465;27;19922;-58
2022/04/06 10:01:12;;;;;;;;;;;21.30;34.40;;;;;;5170224;27;19945;-56
2022/04/06 10:03:39;;;;;;;;;;;21.20;34.30;;;;;;5144792;27;20370;-58
2022/04/06 10:06:05;;;;;;;;;;;21.20;34.50;;;;;;5167016;27;19967;-56
2022/04/06 10:08:31;;;;;;;;;;;21.30;34.40;;;;;;5172244;27;19922;-48
2022/04/06 10:10:58;;;;;;;;;;;21.00;35.00;;;;;;5166536;27;19923;-58
2022/04/06 10:13:24;;;;;;;;;;;21.30;34.80;;;;;;5171895;27;19927;-58
2022/04/06 10:15:50;;;;;;;;;;;21.10;35.20;;;;;;5166294;27;20426;-57
2022/04/06 10:18:17;;;;;;;;;;;21.00;35.60;;;;;;5165746;27;20014;-56
2022/04/06 10:20:54;;;;;;;;;;;21.30;35.20;;;;;;5168452;27;19923;-57
2022/04/06 10:23:23;;;;;;;;;;;21.30;35.40;;;;;;5146438;27;20378;-57
2022/04/06 10:25:49;;;;;;;;;;;21.10;35.30;;;;;;5166610;27;19929;-55
2022/04/06 10:28:14;;;;;;;;;;;21.20;35.00;;;;;;5171806;27;19974;-55
2022/04/06 10:30:40;;;;;;;;;;;21.10;35.50;;;;;;5166061;27;19926;-54
2022/04/06 10:33:17;;;;;;;;;;;21.30;35.30;;;;;;5168433;27;19926;-56
2022/04/06 10:35:43;;;;;;;;;;;21.00;35.70;;;;;;5171136;27;19937;-51
2022/04/06 10:38:09;;;;;;;;;;;21.30;34.90;;;;;;5163973;27;19923;-53
2022/04/06 10:40:43;;;;;;;;;;;21.30;34.70;;;;;;5168157;27;19927;-55
2022/04/06 10:43:28;;;;;;;;;;;21.30;34.50;;;;;;5166514;27;19966;-56
2022/04/06 10:45:54;;;;;;;;;;;21.30;34.40;;;;;;5165174;27;20301;-59
2022/04/06 10:48:20;;;;;;;;;;;21.30;34.30;;;;;;5171337;27;19922;-56
2022/04/06 10:50:46;;;;;;;;;;;21.20;34.20;;;;;;5147403;27;19955;-57
2022/04/06 10:53:18;;;;;;;;;;;21.20;34.10;;;;;;5165497;27;19926;-54
2022/04/06 10:56:03;;;;;;;;;;;21.20;34.20;;;;;;5169978;27;19926;-54
2022/04/06 10:58:47;;;;;;;;;;;21.10;34.80;;;;;;5162310;27;19934;-53
2022/04/06 11:01:15;;;;;;;;;;;21.30;34.50;;;;;;5165429;27;19927;-58
2022/04/06 11:03:40;;;;;;;;;;;21.20;34.80;;;;;;5171214;27;19922;-57
2022/04/06 11:06:06;;;;;;;;;;;21.30;34.50;;;;;;5165431;27;19975;-55
2022/04/06 11:11:39;;;;;;;;;;;21.20;34.80;;;;;;5169953;27;20291;-56
2022/04/06 11:14:05;;;;;;;;;;;21.20;35.10;;;;;;5164445;27;19994;-58
2022/04/06 11:17:00;;;;;;;;;;;21.30;34.60;;;;;;5161520;27;19925;-57
2022/04/06 11:19:26;;;;;;;;;;;21.30;34.30;;;;;;5147733;27;19974;-56
2022/04/06 11:21:52;;;;;;;;;;;21.30;34.10;;;;;;5165466;27;19927;-57
2022/04/06 11:24:19;;;;;;;;;;;21.30;34.20;;;;;;5165199;27;19923;-54
2022/04/06 11:26:45;;;;;;;;;;;21.30;34.10;;;;;;5170487;27;19923;-52
2022/04/06 11:29:12;;;;;;;;;;;21.40;33.90;;;;;;5164995;27;20063;-56
2022/04/06 11:31:56;;;;;;;;;;;21.30;33.90;;;;;;5164486;27;19927;-49
2022/04/06 11:34:28;;;;;;;;;;;21.30;34.00;;;;;;5167065;27;19923;-51
2022/04/06 11:36:56;;;;;;;;;;;21.30;34.10;;;;;;5163097;27;19923;-58
2022/04/06 11:39:22;;;;;;;;;;;21.30;34.50;;;;;;5164785;27;19923;-57
2022/04/06 11:41:48;;;;;;;;;;;21.30;34.50;;;;;;5170048;27;19951;-55
2022/04/06 11:44:17;;;;;;;;;;;21.30;34.50;;;;;;5164602;27;19923;-56
2022/04/06 11:46:46;;;;;;;;;;;21.30;34.40;;;;;;5165220;27;19927;-53
2022/04/06 11:49:12;;;;;;;;;;;21.30;34.60;;;;;;5165563;27;20018;-57
2022/04/06 11:51:39;;;;;;;;;;;21.30;34.50;;;;;;5163006;27;20277;-57
2022/04/06 11:54:05;;;;;;;;;;;21.30;34.30;;;;;;5166364;27;19926;-54
2022/04/06 11:56:31;;;;;;;;;;;21.30;34.20;;;;;;5162917;27;19929;-55
2022/04/06 11:58:57;;;;;;;;;;;21.30;34.20;;;;;;5164211;27;19922;-58
2022/04/06 12:01:28;;;;;;;;;;;21.30;34.50;;;;;;5169862;27;19930;-57
2022/04/06 12:03:58;;;;;;;;;;;21.40;34.30;;;;;;5164339;27;19931;-56
2022/04/06 12:06:30;;;;;;;;;;;21.40;34.10;;;;;;5164237;27;20285;-53
2022/04/06 12:08:56;;;;;;;;;;;21.60;33.80;;;;;;5169111;27;20362;-56
2022/04/06 12:11:22;;;;;;;;;;;21.40;34.10;;;;;;5160968;27;19955;-54
2022/04/06 12:13:48;;;;;;;;;;;21.40;34.00;;;;;;5163923;27;20544;-53
2022/04/06 12:16:14;;;;;;;;;;;21.40;33.90;;;;;;5168858;27;19934;-53
2022/04/06 12:18:46;;;;;;;;;;;21.50;34.00;;;;;;5201330;27;19918;-57
2022/04/06 12:21:18;;;;;;;;;;;21.50;34.20;;;;;;5204687;27;19922;-54
2022/04/06 12:23:44;;;;;;;;;;;21.50;33.70;;;;;;5179749;27;20064;-56
2022/04/06 12:26:11;;;;;;;;;;;21.50;33.60;;;;;;5179646;27;20377;-58
2022/04/06 12:28:37;;;;;;;;;;;21.50;33.30;;;;;;5183477;27;20005;-57
2022/04/06 12:31:06;;;;;;;;;;;21.60;33.00;;;;;;5176368;27;20410;-56
2022/04/06 12:33:39;;;;;;;;;;;21.60;32.90;;;;;;5179457;27;19923;-57
2022/04/06 12:36:21;;;;;;;;;;;21.60;32.80;;;;;;5185391;27;19966;-59
2022/04/06 12:38:58;;;;;;;;;;;21.60;32.90;;;;;;5179624;27;20013;-56
2022/04/06 12:41:25;;;;;;;;;;;21.60;32.80;;;;;;5179530;27;19926;-58
2022/04/06 12:43:51;;;;;;;;;;;21.70;32.70;;;;;;5184810;27;19929;-59
2022/04/06 12:46:35;;;;;;;;;;;21.70;32.40;;;;;;5178347;27;20281;-55
2022/04/06 12:49:20;;;;;;;;;;;21.60;32.70;;;;;;5175772;27;19922;-54
2022/04/06 12:51:46;;;;;;;;;;;21.70;32.70;;;;;;5184427;27;20381;-60
2022/04/06 12:54:12;;;;;;;;;;;21.80;32.40;;;;;;5159581;27;20000;-57
2022/04/06 12:56:38;;;;;;;;;;;21.80;32.30;;;;;;5179060;27;20358;-55
2022/04/06 12:59:08;;;;;;;;;;;21.80;32.20;;;;;;5184805;27;20037;-52
2022/04/06 13:01:42;;;;;;;;;;;21.80;32.20;;;;;;5160458;27;19923;-57
2022/04/06 13:04:08;;;;;;;;;;;21.80;32.50;;;;;;5179152;27;20369;-57
2022/04/06 13:06:34;;;;;;;;;;;21.70;32.40;;;;;;5181123;27;19922;-55
2022/04/06 13:08:59;;;;;;;;;;;21.80;32.40;;;;;;5158524;27;19977;-59
2022/04/06 13:11:25;;;;;;;;;;;21.80;32.60;;;;;;5184655;27;20440;-52
2022/04/06 13:13:51;;;;;;;;;;;21.80;32.60;;;;;;5179100;27;20378;-56
2022/04/06 13:16:17;;;;;;;;;;;21.80;32.40;;;;;;5160284;27;21261;-52
2022/04/06 13:18:42;;;;;;;;;;;21.90;32.20;;;;;;5184325;27;19930;-57
2022/04/06 13:21:09;;;;;;;;;;;21.90;32.00;;;;;;5178668;27;19927;-58
2022/04/06 13:23:35;;;;;;;;;;;21.90;32.00;;;;;;5177615;27;20019;-52
2022/04/06 13:26:02;;;;;;;;;;;21.90;31.90;;;;;;5161881;27;19930;-58
2022/04/06 13:28:27;;;;;;;;;;;21.90;32.00;;;;;;5173973;27;20357;-55
2022/04/06 13:30:54;;;;;;;;;;;21.90;32.10;;;;;;5170400;27;19966;-58
2022/04/06 13:33:21;;;;;;;;;;;21.90;32.50;;;;;;5164444;27;19933;-55
2022/04/06 13:35:49;;;;;;;;;;;21.90;32.40;;;;;;5164835;27;19922;-60
2022/04/06 13:38:14;;;;;;;;;;;22.00;32.20;;;;;;5169829;27;20020;-55
2022/04/06 13:40:40;;;;;;;;;;;22.00;31.90;;;;;;5164039;27;19923;-54
2022/04/06 13:43:06;;;;;;;;;;;22.00;32.00;;;;;;5162090;27;19930;-58
2022/04/06 13:45:32;;;;;;;;;;;22.00;32.50;;;;;;5167612;27;19926;-59
2022/04/06 13:47:58;;;;;;;;;;;22.00;32.40;;;;;;5164674;27;19931;-59
2022/04/06 13:50:24;;;;;;;;;;;22.00;32.30;;;;;;5169851;27;20017;-54
2022/04/06 13:52:50;;;;;;;;;;;22.10;32.20;;;;;;5164950;27;19974;-58
2022/04/06 13:55:21;;;;;;;;;;;22.10;32.20;;;;;;5164319;27;20427;-57
2022/04/06 13:57:48;;;;;;;;;;;22.20;32.10;;;;;;5169549;27;20290;-58
2022/04/06 14:00:14;;;;;;;;;;;22.20;32.20;;;;;;5144769;27;20003;-56
2022/04/06 14:02:41;;;;;;;;;;;22.10;32.30;;;;;;5160870;27;20442;-58
2022/04/06 14:05:07;;;;;;;;;;;22.10;32.50;;;;;;5168785;27;19970;-57
2022/04/06 14:07:33;;;;;;;;;;;22.10;32.20;;;;;;5164225;27;19930;-56
2022/04/06 14:09:59;;;;;;;;;;;22.20;32.00;;;;;;5164285;27;19978;-55
2022/04/06 14:12:24;;;;;;;;;;;22.10;32.10;;;;;;5169740;27;19927;-55
2022/04/06 14:14:50;;;;;;;;;;;22.20;31.80;;;;;;5163832;27;19930;-52
2022/04/06 14:17:16;;;;;;;;;;;22.20;31.80;;;;;;5169161;27;20373;-56
2022/04/06 14:19:42;;;;;;;;;;;22.20;31.70;;;;;;5161951;27;19923;-50
2022/04/06 14:22:08;;;;;;;;;;;22.20;31.70;;;;;;5160724;27;19923;-52
2022/04/06 14:24:33;;;;;;;;;;;22.10;32.10;;;;;;5169286;27;19976;-56